createdAt,value
2018-04-17T00:00:18.886Z,80.87
2018-04-17T00:02:46.445Z,80.91
2018-04-17T00:05:13.993Z,81.13
2018-04-17T00:07:41.576Z,81.30
2018-04-17T00:10:09.182Z,81.69
2018-04-17T00:12:36.728Z,82.12
2018-04-17T00:15:04.282Z,82.22
2018-04-17T00:17:31.862Z,82.20
2018-04-17T00:19:59.417Z,82.26
2018-04-17T00:22:27.013Z,82.34
2018-04-17T00:24:54.609Z,82.82
2018-04-17T00:27:22.171Z,82.91
2018-04-17T00:29:49.743Z,83.12
2018-04-17T00:32:17.298Z,83.44
2018-04-17T00:34:44.887Z,83.76
2018-04-17T00:37:12.465Z,83.52
2018-04-17T00:39:40.021Z,83.72
2018-04-17T00:42:07.598Z,84.12
2018-04-17T00:44:35.190Z,84.48
2018-04-17T00:47:02.774Z,84.15
2018-04-17T00:49:30.338Z,84.35
2018-04-17T00:51:57.892Z,84.41
2018-04-17T00:54:25.478Z,84.38
2018-04-17T00:56:53.032Z,84.66
2018-04-17T00:59:20.608Z,85.56
2018-04-17T01:01:48.171Z,85.76
2018-04-17T01:04:15.720Z,86.31
2018-04-17T01:06:43.289Z,86.34
2018-04-17T01:09:10.845Z,87.49
2018-04-17T01:11:39.417Z,86.73
2018-04-17T01:14:06.977Z,87.01
2018-04-17T01:16:34.532Z,87.16
2018-04-17T01:19:02.109Z,87.59
2018-04-17T01:21:29.670Z,87.06
2018-04-17T01:23:57.266Z,88.28
2018-04-17T01:26:24.829Z,88.09
2018-04-17T01:28:52.856Z,86.68
2018-04-17T01:31:20.428Z,87.62
2018-04-17T01:33:47.992Z,88.72
2018-04-17T01:36:15.597Z,88.39
2018-04-17T01:38:43.159Z,87.95
2018-04-17T01:41:10.717Z,87.72
2018-04-17T01:43:38.294Z,88.18
2018-04-17T01:46:05.836Z,88.37
2018-04-17T01:48:33.430Z,88.62
2018-04-17T01:51:01.010Z,89.54
2018-04-17T01:53:28.567Z,88.93
2018-04-17T01:55:56.142Z,89.07
2018-04-17T01:58:23.752Z,89.10
2018-04-17T02:00:51.321Z,88.90
2018-04-17T02:03:18.905Z,89.56
2018-04-17T02:05:46.456Z,89.06
2018-04-17T02:08:14.040Z,89.01
2018-04-17T02:10:41.592Z,89.90
2018-04-17T02:13:09.160Z,89.46
2018-04-17T02:15:36.721Z,89.30
2018-04-17T02:18:04.277Z,89.03
2018-04-17T02:20:31.873Z,88.91
2018-04-17T02:22:59.432Z,88.75
2018-04-17T02:25:27.010Z,88.11
2018-04-17T02:27:54.568Z,88.89
2018-04-17T02:30:22.120Z,89.11
2018-04-17T02:32:49.693Z,89.27
2018-04-17T02:35:17.241Z,88.82
2018-04-17T02:37:44.825Z,88.85
2018-04-17T02:40:12.386Z,89.60
2018-04-17T02:42:39.949Z,90.06
2018-04-17T02:45:07.538Z,89.75
2018-04-17T02:47:35.197Z,89.48
2018-04-17T02:50:02.781Z,89.60
2018-04-17T02:52:30.337Z,89.52
2018-04-17T02:54:57.892Z,89.07
2018-04-17T02:57:25.477Z,88.58
2018-04-17T02:59:53.061Z,88.65
2018-04-17T03:02:21.497Z,88.50
2018-04-17T03:04:49.049Z,89.14
2018-04-17T03:07:16.609Z,89.46
2018-04-17T03:09:44.181Z,89.63
2018-04-17T03:12:11.737Z,89.58
2018-04-17T03:14:39.318Z,89.35
2018-04-17T03:17:06.865Z,89.00
2018-04-17T03:19:34.421Z,89.29
2018-04-17T03:22:02.012Z,89.88
2018-04-17T03:24:29.566Z,90.14
2018-04-17T03:26:57.285Z,90.38
2018-04-17T03:29:25.299Z,90.02
2018-04-17T03:31:52.846Z,90.51
2018-04-17T03:34:20.425Z,90.23
2018-04-17T03:36:48.087Z,90.91
2018-04-17T03:39:15.719Z,90.95
2018-04-17T03:41:43.308Z,90.94
2018-04-17T03:44:10.940Z,91.28
2018-04-17T03:46:38.544Z,91.28
2018-04-17T03:49:06.175Z,91.09
2018-04-17T03:51:33.822Z,90.98
2018-04-17T03:54:01.416Z,90.33
2018-04-17T03:56:29.029Z,89.58
2018-04-17T03:58:56.617Z,89.64
2018-04-17T04:01:24.185Z,89.29
2018-04-17T04:03:51.760Z,89.62
2018-04-17T04:06:19.313Z,89.64
2018-04-17T04:08:46.868Z,89.62
2018-04-17T04:11:14.444Z,89.70
2018-04-17T04:13:41.984Z,90.02
2018-04-17T04:19:24.052Z,90.07
2018-04-17T04:22:04.451Z,90.53
2018-04-17T04:24:43.688Z,90.51
2018-04-17T04:27:11.251Z,90.31
2018-04-17T04:29:38.824Z,89.89
2018-04-17T04:32:06.397Z,89.17
2018-04-17T04:34:33.944Z,88.98
2018-04-17T04:37:01.488Z,88.41
2018-04-17T04:39:29.052Z,87.60
2018-04-17T04:41:56.596Z,88.24
2018-04-17T04:44:24.181Z,88.67
2018-04-17T04:46:51.733Z,87.35
2018-04-17T04:49:19.281Z,87.86
2018-04-17T04:51:46.852Z,88.49
2018-04-17T04:54:14.395Z,88.31
2018-04-17T04:56:41.994Z,88.76
2018-04-17T04:59:09.550Z,87.65
2018-04-17T05:01:37.105Z,87.08
2018-04-17T05:04:04.685Z,88.71
2018-04-17T05:06:32.296Z,89.69
2018-04-17T05:08:59.873Z,90.59
2018-04-17T05:11:27.417Z,90.58
2018-04-17T05:13:54.960Z,89.51
2018-04-17T05:16:22.534Z,86.87
2018-04-17T05:18:50.080Z,85.70
2018-04-17T05:21:17.648Z,86.42
2018-04-17T05:23:45.263Z,87.97
2018-04-17T05:26:12.789Z,87.98
2018-04-17T05:28:40.379Z,87.01
2018-04-17T05:31:07.937Z,86.81
2018-04-17T05:33:36.521Z,87.03
2018-04-17T05:36:04.102Z,86.36
2018-04-17T05:38:31.651Z,85.91
2018-04-17T05:40:59.226Z,85.02
2018-04-17T05:43:26.728Z,85.68
2018-04-17T05:45:54.249Z,86.52
2018-04-17T05:48:21.744Z,85.74
2018-04-17T05:50:49.241Z,84.82
2018-04-17T05:53:16.773Z,84.15
2018-04-17T05:55:44.343Z,82.56
2018-04-17T05:58:11.831Z,82.77
2018-04-17T06:00:39.334Z,82.82
2018-04-17T06:03:06.835Z,82.51
2018-04-17T06:05:34.353Z,82.22
2018-04-17T06:08:01.849Z,82.58
2018-04-17T06:10:29.378Z,81.20
2018-04-17T06:12:56.881Z,80.70
2018-04-17T06:15:24.414Z,80.71
2018-04-17T06:17:51.941Z,80.91
2018-04-17T06:20:19.482Z,82.33
2018-04-17T06:22:47.015Z,82.61
2018-04-17T06:25:14.514Z,82.55
2018-04-17T06:27:42.012Z,83.20
2018-04-17T06:30:09.529Z,83.09
2018-04-17T06:32:37.029Z,82.76
2018-04-17T06:35:04.605Z,82.54
2018-04-17T06:37:32.060Z,83.25
2018-04-17T06:39:59.553Z,83.50
2018-04-17T06:42:27.066Z,82.57
2018-04-17T06:44:54.556Z,80.35
2018-04-17T06:47:22.116Z,79.78
2018-04-17T06:49:49.590Z,78.75
2018-04-17T06:52:17.080Z,75.86
2018-04-17T06:54:44.589Z,73.89
2018-04-17T06:57:12.086Z,71.82
2018-04-17T06:59:39.608Z,70.14
2018-04-17T07:02:07.098Z,69.79
2018-04-17T07:04:34.607Z,69.56
2018-04-17T07:07:02.126Z,69.70
2018-04-17T07:09:29.627Z,68.19
2018-04-17T07:11:57.156Z,66.24
2018-04-17T07:14:24.659Z,62.04
2018-04-17T07:16:52.156Z,59.25
2018-04-17T07:19:19.694Z,54.55
2018-04-17T07:21:47.193Z,52.21
2018-04-17T07:24:14.713Z,48.12
2018-04-17T07:26:42.206Z,46.49
2018-04-17T07:29:09.712Z,47.94
2018-04-17T07:31:37.230Z,46.73
2018-04-17T07:34:04.726Z,44.16
2018-04-17T07:36:32.245Z,42.24
2018-04-17T07:38:59.741Z,40.93
2018-04-17T07:41:27.342Z,40.46
2018-04-17T07:43:54.776Z,38.90
2018-04-17T07:46:22.279Z,38.75
2018-04-17T07:48:50.701Z,39.07
2018-04-17T07:51:18.188Z,37.52
2018-04-17T07:53:45.712Z,36.60
2018-04-17T07:56:13.204Z,36.25
2018-04-17T07:58:40.702Z,37.47
2018-04-17T08:01:08.225Z,36.82
2018-04-17T08:03:35.721Z,36.12
2018-04-17T08:06:03.237Z,35.88
2018-04-17T08:08:30.733Z,35.42
2018-04-17T08:10:58.226Z,34.41
2018-04-17T08:13:25.751Z,34.64
2018-04-17T08:15:53.240Z,34.36
2018-04-17T08:18:20.760Z,32.57
2018-04-17T08:20:48.253Z,32.78
2018-04-17T08:23:16.674Z,32.11
2018-04-17T08:25:44.209Z,31.72
2018-04-17T08:28:11.759Z,31.12
2018-04-17T08:30:39.306Z,30.13
2018-04-17T08:33:06.802Z,31.24
2018-04-17T08:35:34.290Z,34.31
2018-04-17T08:38:01.814Z,32.21
2018-04-17T08:40:29.323Z,30.76
2018-04-17T08:42:56.847Z,31.31
2018-04-17T08:45:24.406Z,31.93
2018-04-17T08:47:51.901Z,30.88
2018-04-17T08:50:19.412Z,30.46
2018-04-17T08:52:46.913Z,29.91
2018-04-17T08:55:14.438Z,29.69
2018-04-17T08:57:41.929Z,28.30
2018-04-17T09:00:09.427Z,29.47
2018-04-17T09:02:36.938Z,29.79
2018-04-17T09:05:04.430Z,32.80
2018-04-17T09:07:31.942Z,32.34
2018-04-17T09:09:59.438Z,34.20
2018-04-17T09:12:26.934Z,32.65
2018-04-17T09:14:54.456Z,31.21
2018-04-17T09:17:21.945Z,31.42
2018-04-17T09:19:49.470Z,30.88
2018-04-17T09:22:16.971Z,31.36
2018-04-17T09:24:44.465Z,30.79
2018-04-17T09:27:11.985Z,29.14
2018-04-17T09:29:39.482Z,29.45
2018-04-17T09:32:07.973Z,27.58
2018-04-17T09:34:35.546Z,29.26
2018-04-17T09:37:03.011Z,28.21
2018-04-17T09:39:30.534Z,29.76
2018-04-17T09:41:58.036Z,27.25
2018-04-17T09:44:26.422Z,30.86
2018-04-17T09:46:53.915Z,31.57
2018-04-17T09:49:21.413Z,32.13
2018-04-17T09:51:48.925Z,33.31
2018-04-17T09:54:16.425Z,31.62
2018-04-17T09:56:43.922Z,32.91
2018-04-17T09:59:11.453Z,31.65
2018-04-17T10:01:38.952Z,29.31
2018-04-17T10:04:06.457Z,29.30
2018-04-17T10:06:33.988Z,28.36
2018-04-17T10:09:01.624Z,27.64
2018-04-17T10:11:29.100Z,28.34
2018-04-17T10:13:56.674Z,30.37
2018-04-17T10:16:24.169Z,31.27
2018-04-17T10:18:51.681Z,31.37
2018-04-17T10:21:19.234Z,33.16
2018-04-17T10:23:46.753Z,30.12
2018-04-17T10:26:14.252Z,28.58
2018-04-17T10:28:41.758Z,24.93
2018-04-17T10:31:09.286Z,24.98
2018-04-17T10:33:36.774Z,27.02
2018-04-17T10:36:04.302Z,24.27
2018-04-17T10:38:31.812Z,23.01
2018-04-17T10:40:59.481Z,22.73
2018-04-17T10:43:27.238Z,21.76
2018-04-17T10:45:54.770Z,21.12
2018-04-17T10:48:22.291Z,22.47
2018-04-17T10:50:49.937Z,21.75
2018-04-17T10:53:17.553Z,22.73
2018-04-17T10:55:45.084Z,22.45
2018-04-17T10:58:12.581Z,23.57
2018-04-17T11:00:40.267Z,25.85
2018-04-17T11:03:07.925Z,25.90
2018-04-17T11:05:35.523Z,25.07
2018-04-17T11:08:03.051Z,24.87
2018-04-17T11:10:30.578Z,23.76
2018-04-17T11:12:58.278Z,22.86
2018-04-17T11:15:25.812Z,22.43
2018-04-17T11:17:53.325Z,26.00
2018-04-17T11:20:20.868Z,28.09
2018-04-17T11:22:48.550Z,27.26
2018-04-17T11:25:16.119Z,28.75
2018-04-17T11:27:43.634Z,32.86
2018-04-17T11:30:11.147Z,29.74
2018-04-17T11:32:38.858Z,29.02
2018-04-17T11:35:06.477Z,27.93
2018-04-17T11:37:34.018Z,30.45
2018-04-17T11:40:01.513Z,29.10
2018-04-17T11:42:29.175Z,30.18
2018-04-17T11:44:56.916Z,28.80
2018-04-17T11:47:24.433Z,31.33
2018-04-17T11:49:51.952Z,31.19
2018-04-17T11:52:19.602Z,30.55
2018-04-17T11:54:47.293Z,27.71
2018-04-17T11:57:14.830Z,27.70
2018-04-17T11:59:42.324Z,26.68
2018-04-17T12:02:09.847Z,26.36
2018-04-17T12:04:37.347Z,26.77
2018-04-17T12:07:04.863Z,26.21
2018-04-17T12:09:32.377Z,29.40
2018-04-17T12:11:59.864Z,31.85
2018-04-17T12:14:27.392Z,33.21
2018-04-17T12:16:54.885Z,31.03
2018-04-17T12:19:22.376Z,34.08
2018-04-17T12:21:49.903Z,32.23
2018-04-17T12:24:17.401Z,31.54
2018-04-17T12:26:44.937Z,30.16
2018-04-17T12:29:12.430Z,30.63
2018-04-17T12:31:39.921Z,28.57
2018-04-17T12:34:07.481Z,30.24
2018-04-17T12:36:34.973Z,29.46
2018-04-17T12:39:02.484Z,30.59
2018-04-17T12:41:29.979Z,29.66
2018-04-17T12:43:57.472Z,29.94
2018-04-17T12:46:24.994Z,30.90
2018-04-17T12:48:52.492Z,31.26
2018-04-17T12:51:20.021Z,31.61
2018-04-17T12:53:47.580Z,31.20
2018-04-17T12:56:15.072Z,30.63
2018-04-17T12:58:42.588Z,30.37
2018-04-17T13:01:10.090Z,33.70
2018-04-17T13:03:38.577Z,33.24
2018-04-17T13:06:06.066Z,32.69
2018-04-17T13:08:33.566Z,30.61
2018-04-17T13:11:01.088Z,28.42
2018-04-17T13:13:28.642Z,32.34
2018-04-17T13:15:56.162Z,31.30
2018-04-17T13:18:23.689Z,28.73
2018-04-17T13:20:51.173Z,33.52
2018-04-17T13:23:18.682Z,31.06
2018-04-17T13:25:46.175Z,30.67
2018-04-17T13:28:13.703Z,30.67
2018-04-17T13:30:41.197Z,30.18
2018-04-17T13:33:08.718Z,30.06
2018-04-17T13:35:36.231Z,31.33
2018-04-17T13:38:03.722Z,31.91
2018-04-17T13:40:31.242Z,32.38
2018-04-17T13:42:58.736Z,32.42
2018-04-17T13:45:26.220Z,31.27
2018-04-17T13:47:53.734Z,32.50
2018-04-17T13:50:21.229Z,31.85
2018-04-17T13:52:48.745Z,33.18
2018-04-17T13:55:16.233Z,29.97
2018-04-17T13:57:43.722Z,30.60
2018-04-17T14:00:11.242Z,35.02
2018-04-17T14:02:38.800Z,35.50
2018-04-17T14:05:07.273Z,34.16
2018-04-17T14:07:34.774Z,33.03
2018-04-17T14:10:02.279Z,32.83
2018-04-17T14:12:29.801Z,33.64
2018-04-17T14:14:57.291Z,30.80
2018-04-17T14:17:24.824Z,33.14
2018-04-17T14:19:52.324Z,32.94
2018-04-17T14:22:19.818Z,32.69
2018-04-17T14:24:47.337Z,32.25
2018-04-17T14:27:14.842Z,31.68
2018-04-17T14:29:42.377Z,32.23
2018-04-17T14:32:09.873Z,34.44
2018-04-17T14:34:37.402Z,31.76
2018-04-17T14:37:04.933Z,33.67
2018-04-17T14:39:32.522Z,33.31
2018-04-17T14:42:00.053Z,34.72
2018-04-17T14:44:27.559Z,32.08
2018-04-17T14:46:55.128Z,31.13
2018-04-17T14:49:22.666Z,31.89
2018-04-17T14:51:50.167Z,33.36
2018-04-17T14:54:17.682Z,33.47
2018-04-17T14:56:45.184Z,32.82
2018-04-17T14:59:12.681Z,32.13
2018-04-17T15:01:40.198Z,33.82
2018-04-17T15:04:07.686Z,33.07
2018-04-17T15:06:35.210Z,33.18
2018-04-17T15:09:02.716Z,33.42
2018-04-17T15:11:30.201Z,32.98
2018-04-17T15:13:57.726Z,33.21
2018-04-17T15:16:25.222Z,36.98
2018-04-17T15:18:53.729Z,32.77
2018-04-17T15:21:21.213Z,32.82
2018-04-17T15:23:48.701Z,32.94
2018-04-17T15:26:16.222Z,35.19
2018-04-17T15:28:43.722Z,33.16
2018-04-17T15:31:11.240Z,34.39
2018-04-17T15:33:38.720Z,33.97
2018-04-17T15:36:06.210Z,32.36
2018-04-17T15:38:33.737Z,32.66
2018-04-17T15:41:01.227Z,32.18
2018-04-17T15:43:28.731Z,33.09
2018-04-17T15:45:56.208Z,32.13
2018-04-17T15:48:23.706Z,34.55
2018-04-17T15:50:51.254Z,33.70
2018-04-17T15:53:18.730Z,34.80
2018-04-17T15:55:46.230Z,33.52
2018-04-17T15:58:13.714Z,35.14
2018-04-17T16:00:41.220Z,34.60
2018-04-17T16:03:08.719Z,35.47
2018-04-17T16:05:36.192Z,35.56
2018-04-17T16:08:03.687Z,36.62
2018-04-17T16:10:31.162Z,34.08
2018-04-17T16:12:58.663Z,34.38
2018-04-17T16:15:26.155Z,35.38
2018-04-17T16:17:53.626Z,34.48
2018-04-17T16:20:21.130Z,33.09
2018-04-17T16:22:48.607Z,33.07
2018-04-17T16:25:16.079Z,32.79
2018-04-17T16:27:43.583Z,34.46
2018-04-17T16:30:11.064Z,33.49
2018-04-17T16:32:38.563Z,33.10
2018-04-17T16:35:06.036Z,35.42
2018-04-17T16:37:33.506Z,36.64
2018-04-17T16:40:00.993Z,34.41
2018-04-17T16:42:28.483Z,35.46
2018-04-17T16:44:56.000Z,34.26
2018-04-17T16:47:23.490Z,35.88
2018-04-17T16:49:51.061Z,34.48
2018-04-17T16:52:18.571Z,35.58
2018-04-17T16:54:46.067Z,36.76
2018-04-17T16:57:13.550Z,36.16
2018-04-17T16:59:41.072Z,37.49
2018-04-17T17:02:08.582Z,35.63
2018-04-17T17:04:36.073Z,38.87
2018-04-17T17:07:03.589Z,39.09
2018-04-17T17:09:31.077Z,37.50
2018-04-17T17:11:58.613Z,38.17
2018-04-17T17:14:26.114Z,39.25
2018-04-17T17:16:53.619Z,40.37
2018-04-17T17:19:21.135Z,37.61
2018-04-17T17:21:48.625Z,38.74
2018-04-17T17:24:16.142Z,40.46
2018-04-17T17:26:43.633Z,38.08
2018-04-17T17:29:11.119Z,38.10
2018-04-17T17:31:38.678Z,38.12
2018-04-17T17:34:06.225Z,39.07
2018-04-17T17:36:33.799Z,39.25
2018-04-17T17:39:01.372Z,39.74
2018-04-17T17:41:28.913Z,39.06
2018-04-17T17:43:56.454Z,39.59
2018-04-17T17:46:23.953Z,40.12
2018-04-17T17:48:51.575Z,40.23
2018-04-17T17:51:19.145Z,40.43
2018-04-17T17:53:46.659Z,40.86
2018-04-17T17:56:14.245Z,41.21
2018-04-17T17:58:41.752Z,41.71
2018-04-17T18:01:09.382Z,42.18
2018-04-17T18:03:36.981Z,42.57
2018-04-17T18:06:05.461Z,42.98
2018-04-17T18:08:33.085Z,43.31
2018-04-17T18:11:00.614Z,43.17
2018-04-17T18:13:28.156Z,43.43
2018-04-17T18:15:55.645Z,43.96
2018-04-17T18:18:23.125Z,44.45
2018-04-17T18:20:51.605Z,44.62
2018-04-17T18:23:19.102Z,44.72
2018-04-17T18:25:46.655Z,44.82
2018-04-17T18:28:14.153Z,45.56
2018-04-17T18:30:41.651Z,45.78
2018-04-17T18:33:09.164Z,46.11
2018-04-17T18:35:36.646Z,46.58
2018-04-17T18:38:04.169Z,46.75
2018-04-17T18:40:31.667Z,47.23
2018-04-17T18:42:59.167Z,47.55
2018-04-17T18:45:26.682Z,47.95
2018-04-17T18:47:54.173Z,48.26
2018-04-17T18:50:21.689Z,48.48
2018-04-17T18:52:49.191Z,49.01
2018-04-17T18:55:16.687Z,49.25
2018-04-17T18:57:44.200Z,49.45
2018-04-17T19:00:11.757Z,49.61
2018-04-17T19:02:39.277Z,49.51
2018-04-17T19:05:06.774Z,49.71
2018-04-17T19:07:34.274Z,49.53
2018-04-17T19:10:01.790Z,49.36
2018-04-17T19:12:29.289Z,50.62
2018-04-17T19:14:56.808Z,51.66
2018-04-17T19:17:24.294Z,52.58
2018-04-17T19:19:51.786Z,52.43
2018-04-17T19:22:19.713Z,52.58
2018-04-17T19:24:47.226Z,52.72
2018-04-17T19:27:14.744Z,52.87
2018-04-17T19:29:42.224Z,53.00
2018-04-17T19:32:09.737Z,52.62
2018-04-17T19:34:37.254Z,52.43
2018-04-17T19:37:04.758Z,52.04
2018-04-17T19:39:32.283Z,53.12
2018-04-17T19:41:59.768Z,53.34
2018-04-17T19:44:27.280Z,53.92
2018-04-17T19:46:54.788Z,54.01
2018-04-17T19:49:22.278Z,54.35
2018-04-17T19:51:49.796Z,56.09
2018-04-17T19:54:17.334Z,57.25
2018-04-17T19:56:44.821Z,57.13
2018-04-17T19:59:12.334Z,57.16
2018-04-17T20:01:39.823Z,57.18
2018-04-17T20:04:07.342Z,56.98
2018-04-17T20:06:34.848Z,57.23
2018-04-17T20:09:02.342Z,57.53
2018-04-17T20:11:30.797Z,57.46
2018-04-17T20:13:58.297Z,57.50
2018-04-17T20:16:25.809Z,57.90
2018-04-17T20:18:53.305Z,59.84
2018-04-17T20:21:20.797Z,58.94
2018-04-17T20:23:48.308Z,60.38
2018-04-17T20:26:15.801Z,61.07
2018-04-17T20:28:43.313Z,61.35
2018-04-17T20:31:10.805Z,61.10
2018-04-17T20:33:38.300Z,60.71
2018-04-17T20:36:05.816Z,61.65
2018-04-17T20:38:33.314Z,61.45
2018-04-17T20:41:00.824Z,60.85
2018-04-17T20:43:28.338Z,60.83
2018-04-17T20:45:55.830Z,61.68
2018-04-17T20:48:23.337Z,60.78
2018-04-17T20:50:50.825Z,61.06
2018-04-17T20:53:18.380Z,61.55
2018-04-17T20:55:45.915Z,62.14
2018-04-17T20:58:13.410Z,63.17
2018-04-17T21:00:40.928Z,64.00
2018-04-17T21:03:08.455Z,64.28
2018-04-17T21:05:35.973Z,64.89
2018-04-17T21:08:03.477Z,67.07
2018-04-17T21:10:30.961Z,66.01
2018-04-17T21:12:58.473Z,65.90
2018-04-17T21:15:25.960Z,66.70
2018-04-17T21:17:53.472Z,67.66
2018-04-17T21:20:20.965Z,68.41
2018-04-17T21:22:48.458Z,68.64
2018-04-17T21:25:15.970Z,68.58
2018-04-17T21:27:43.509Z,68.84
2018-04-17T21:30:11.033Z,68.91
2018-04-17T21:32:38.523Z,68.76
2018-04-17T21:35:06.024Z,68.74
2018-04-17T21:37:33.543Z,68.75
2018-04-17T21:40:01.034Z,68.85
2018-04-17T21:42:28.558Z,68.67
2018-04-17T21:44:56.049Z,69.43
2018-04-17T21:47:23.537Z,70.16
2018-04-17T21:49:51.050Z,71.32
2018-04-17T21:52:18.545Z,71.15
2018-04-17T21:54:46.069Z,71.56
2018-04-17T21:57:13.562Z,70.75
2018-04-17T21:59:41.046Z,72.37
2018-04-17T22:02:08.553Z,72.54
2018-04-17T22:04:36.051Z,72.68
2018-04-17T22:07:03.561Z,72.12
2018-04-17T22:09:31.050Z,73.08
2018-04-17T22:11:58.586Z,73.36
2018-04-17T22:14:26.162Z,73.72
2018-04-17T22:16:53.659Z,73.90
2018-04-17T22:19:21.181Z,73.72
2018-04-17T22:21:48.672Z,73.72
2018-04-17T22:24:16.164Z,73.43
2018-04-17T22:26:43.715Z,74.48
2018-04-17T22:29:11.214Z,75.10
2018-04-17T22:31:38.732Z,74.57
2018-04-17T22:34:06.246Z,74.48
2018-04-17T22:36:33.745Z,74.67
2018-04-17T22:39:01.262Z,74.39
2018-04-17T22:41:28.769Z,74.96
2018-04-17T22:43:56.289Z,75.28
2018-04-17T22:46:23.789Z,75.86
2018-04-17T22:48:51.290Z,75.97
2018-04-17T22:51:18.804Z,76.17
2018-04-17T22:53:46.310Z,76.49
2018-04-17T22:56:13.820Z,77.24
2018-04-17T22:58:41.304Z,76.14
2018-04-17T23:01:08.802Z,76.37
2018-04-17T23:03:36.317Z,76.91
2018-04-17T23:06:03.804Z,77.49
2018-04-17T23:08:31.330Z,78.75
2018-04-17T23:10:58.820Z,79.26
2018-04-17T23:13:26.309Z,79.26
2018-04-17T23:15:53.844Z,79.87
2018-04-17T23:18:21.345Z,80.07
2018-04-17T23:20:48.865Z,80.15
2018-04-17T23:23:16.370Z,79.75
2018-04-17T23:25:43.892Z,80.52
2018-04-17T23:28:11.411Z,80.99
2018-04-17T23:30:38.910Z,80.16
2018-04-17T23:33:06.433Z,80.08
2018-04-17T23:35:33.933Z,79.77
2018-04-17T23:38:01.431Z,80.34
2018-04-17T23:40:28.953Z,80.10
2018-04-17T23:42:56.450Z,80.47
2018-04-17T23:45:23.949Z,81.30
2018-04-17T23:47:51.461Z,81.23
2018-04-17T23:50:18.962Z,82.43
2018-04-17T23:52:46.466Z,82.23
2018-04-17T23:55:13.984Z,83.77
2018-04-17T23:57:41.478Z,84.26
